createdAt,value
2019-04-14T00:02:03.178Z,93.38
2019-04-14T00:04:31.265Z,93.46
2019-04-14T00:06:59.200Z,93.48
2019-04-14T00:09:27.301Z,93.53
2019-04-14T00:11:54.925Z,93.53
2019-04-14T00:14:22.894Z,93.54
2019-04-14T00:16:51.034Z,93.54
2019-04-14T00:19:18.065Z,93.56
2019-04-14T00:21:45.532Z,93.58
2019-04-14T00:24:13.849Z,93.63
2019-04-14T00:26:42.270Z,93.64
2019-04-14T00:29:10.908Z,93.68
2019-04-14T00:31:38.906Z,93.67
2019-04-14T00:34:07.139Z,93.68
2019-04-14T00:36:34.815Z,93.69
2019-04-14T00:39:03.124Z,93.71
2019-04-14T00:41:41.332Z,93.70
2019-04-14T00:44:01.349Z,93.72
2019-04-14T00:46:31.226Z,93.71
2019-04-14T00:48:58.200Z,93.71
2019-04-14T00:51:26.531Z,93.65
2019-04-14T00:53:53.897Z,93.63
2019-04-14T00:56:21.489Z,93.62
2019-04-14T00:58:49.697Z,93.64
2019-04-14T01:01:17.556Z,93.66
2019-04-14T01:03:45.877Z,93.67
2019-04-14T01:06:14.329Z,93.70
2019-04-14T01:08:42.436Z,93.71
2019-04-14T01:11:09.662Z,93.69
2019-04-14T01:13:37.538Z,93.62
2019-04-14T01:16:11.571Z,93.59
2019-04-14T01:18:34.094Z,93.57
2019-04-14T01:21:02.519Z,93.53
2019-04-14T01:23:30.496Z,93.54
2019-04-14T01:25:58.466Z,93.53
2019-04-14T01:28:26.575Z,93.52
2019-04-14T01:30:54.471Z,93.49
2019-04-14T01:33:22.833Z,93.50
2019-04-14T01:35:50.988Z,93.48
2019-04-14T01:38:19.009Z,93.48
2019-04-14T01:40:46.684Z,93.47
2019-04-14T01:43:14.629Z,93.43
2019-04-14T01:45:42.521Z,93.33
2019-04-14T01:48:10.545Z,93.26
2019-04-14T01:50:38.592Z,93.24
2019-04-14T01:53:09.693Z,93.25
2019-04-14T01:55:37.332Z,93.17
2019-04-14T01:58:05.368Z,93.08
2019-04-14T02:00:33.725Z,92.77
2019-04-14T02:03:01.866Z,92.18
2019-04-14T02:05:29.984Z,92.14
2019-04-14T02:07:58.016Z,92.20
2019-04-14T02:10:25.923Z,92.32
2019-04-14T02:12:54.240Z,92.42
2019-04-14T02:15:22.273Z,92.46
2019-04-14T02:17:50.256Z,92.20
2019-04-14T02:20:18.585Z,92.28
2019-04-14T02:22:46.338Z,92.21
2019-04-14T02:25:14.268Z,92.04
2019-04-14T02:27:41.342Z,92.02
2019-04-14T02:30:10.151Z,92.18
2019-04-14T02:33:05.449Z,92.22
2019-04-14T02:35:40.864Z,92.26
2019-04-14T02:38:14.500Z,92.29
2019-04-14T02:40:37.085Z,92.38
2019-04-14T02:42:52.234Z,92.46
2019-04-14T02:45:35.332Z,92.51
2019-04-14T02:48:02.505Z,92.58
2019-04-14T02:52:53.702Z,92.40
2019-04-14T02:55:19.057Z,92.34
2019-04-14T02:57:52.913Z,92.37
2019-04-14T03:00:23.945Z,92.44
2019-04-14T03:02:48.685Z,92.52
2019-04-14T03:05:16.342Z,92.50
2019-04-14T03:07:45.924Z,92.52
2019-04-14T03:10:17.923Z,92.42
2019-04-14T03:15:20.147Z,92.39
2019-04-14T03:17:58.270Z,92.42
2019-04-14T03:20:24.549Z,92.46
2019-04-14T03:22:42.234Z,92.46
2019-04-14T03:24:55.117Z,92.45
2019-04-14T03:30:16.548Z,92.31
2019-04-14T03:33:14.014Z,92.29
2019-04-14T03:35:35.538Z,92.28
2019-04-14T03:37:46.837Z,92.29
2019-04-14T03:40:01.610Z,92.27
2019-04-14T03:42:37.695Z,92.24
2019-04-14T03:45:11.103Z,92.26
2019-04-14T03:47:25.090Z,92.21
2019-04-14T03:50:00.926Z,92.20
2019-04-14T03:52:31.626Z,92.10
2019-04-14T03:54:51.015Z,92.04
2019-04-14T03:57:00.179Z,92.10
2019-04-14T03:59:28.193Z,92.07
2019-04-14T04:01:56.608Z,91.93
2019-04-14T04:04:25.052Z,91.89
2019-04-14T04:06:53.506Z,91.89
2019-04-14T04:09:21.457Z,91.89
2019-04-14T04:11:49.743Z,91.84
2019-04-14T04:14:18.067Z,91.87
2019-04-14T04:16:46.189Z,91.89
2019-04-14T04:19:15.489Z,91.95
2019-04-14T04:21:42.673Z,91.83
2019-04-14T04:24:10.728Z,91.74
2019-04-14T04:26:38.639Z,91.76
2019-04-14T04:29:06.888Z,91.83
2019-04-14T04:31:35.038Z,91.90
2019-04-14T04:34:03.413Z,91.92
2019-04-14T04:36:31.284Z,91.91
2019-04-14T04:38:59.625Z,91.89
2019-04-14T04:41:27.557Z,91.80
2019-04-14T04:43:56.039Z,91.76
2019-04-14T04:46:24.324Z,91.82
2019-04-14T04:49:03.182Z,91.81
2019-04-14T04:51:20.355Z,91.75
2019-04-14T04:53:48.356Z,91.78
2019-04-14T04:56:16.895Z,91.52
2019-04-14T04:58:44.224Z,91.40
2019-04-14T05:01:12.403Z,91.41
2019-04-14T05:03:40.720Z,91.36
2019-04-14T05:06:09.155Z,91.42
2019-04-14T05:08:36.993Z,91.46
2019-04-14T05:11:05.363Z,91.35
2019-04-14T05:13:33.473Z,91.35
2019-04-14T05:16:00.629Z,91.24
2019-04-14T05:18:28.979Z,91.14
2019-04-14T05:20:57.331Z,91.21
2019-04-14T05:23:25.536Z,91.30
2019-04-14T05:25:53.770Z,91.32
2019-04-14T05:28:22.080Z,91.36
2019-04-14T05:30:50.278Z,91.30
2019-04-14T05:33:18.571Z,91.37
2019-04-14T05:35:46.684Z,91.37
2019-04-14T05:38:14.718Z,91.29
2019-04-14T05:40:42.911Z,91.35
2019-04-14T05:43:11.343Z,91.34
2019-04-14T05:45:39.601Z,91.16
2019-04-14T05:48:07.469Z,90.98
2019-04-14T05:50:35.733Z,90.49
2019-04-14T05:53:04.266Z,90.31
2019-04-14T05:55:32.777Z,89.94
2019-04-14T05:57:59.856Z,89.77
2019-04-14T06:00:27.806Z,89.16
2019-04-14T06:02:55.193Z,88.83
2019-04-14T06:05:23.261Z,86.91
2019-04-14T06:07:50.756Z,87.17
2019-04-14T06:10:17.796Z,85.90
2019-04-14T06:12:44.851Z,85.31
2019-04-14T06:15:11.893Z,85.26
2019-04-14T06:17:39.251Z,85.45
2019-04-14T06:20:06.604Z,84.52
2019-04-14T06:22:33.977Z,82.81
2019-04-14T06:25:01.026Z,82.37
2019-04-14T06:27:29.247Z,78.69
2019-04-14T06:29:56.639Z,75.79
2019-04-14T06:32:23.689Z,71.95
2019-04-14T06:34:51.554Z,67.25
2019-04-14T06:37:18.921Z,66.38
2019-04-14T06:39:46.266Z,63.29
2019-04-14T06:42:13.319Z,63.65
2019-04-14T06:44:40.686Z,64.70
2019-04-14T06:47:08.011Z,63.33
2019-04-14T06:49:35.399Z,61.76
2019-04-14T06:52:02.715Z,62.51
2019-04-14T06:54:29.745Z,59.67
2019-04-14T06:56:56.802Z,60.08
2019-04-14T06:59:23.836Z,58.38
2019-04-14T07:01:50.886Z,60.34
2019-04-14T07:04:17.931Z,57.72
2019-04-14T07:06:46.355Z,53.96
2019-04-14T07:09:13.733Z,56.09
2019-04-14T07:11:40.770Z,57.27
2019-04-14T07:14:08.129Z,56.69
2019-04-14T07:16:35.162Z,58.50
2019-04-14T07:19:02.222Z,56.80
2019-04-14T07:21:29.583Z,54.98
2019-04-14T07:23:56.882Z,55.87
2019-04-14T07:26:24.273Z,55.82
2019-04-14T07:28:56.882Z,52.28
2019-04-14T07:31:20.062Z,53.11
2019-04-14T07:33:47.179Z,49.25
2019-04-14T07:36:14.611Z,49.64
2019-04-14T07:38:41.971Z,50.33
2019-04-14T07:41:09.016Z,45.42
2019-04-14T07:43:36.392Z,48.69
2019-04-14T07:46:03.670Z,48.98
2019-04-14T07:48:30.727Z,50.44
2019-04-14T07:50:58.131Z,50.16
2019-04-14T07:53:25.193Z,50.75
2019-04-14T07:55:52.242Z,50.24
2019-04-14T07:58:19.299Z,49.64
2019-04-14T08:00:46.353Z,49.68
2019-04-14T08:03:13.404Z,53.01
2019-04-14T08:05:40.442Z,52.62
2019-04-14T08:08:07.494Z,52.27
2019-04-14T08:10:34.539Z,53.67
2019-04-14T08:13:01.887Z,56.71
2019-04-14T08:15:28.920Z,55.77
2019-04-14T08:17:56.275Z,56.62
2019-04-14T08:20:27.643Z,57.37
2019-04-14T08:22:52.066Z,58.31
2019-04-14T08:25:19.461Z,59.78
2019-04-14T08:27:46.739Z,59.31
2019-04-14T08:30:13.791Z,60.69
2019-04-14T08:32:40.841Z,58.36
2019-04-14T08:35:08.167Z,60.92
2019-04-14T08:37:35.213Z,60.37
2019-04-14T08:40:02.631Z,61.19
2019-04-14T08:42:29.885Z,59.79
2019-04-14T08:44:57.298Z,62.18
2019-04-14T08:47:24.634Z,63.24
2019-04-14T08:49:51.990Z,62.24
2019-04-14T08:52:19.261Z,62.93
2019-04-14T08:54:46.316Z,59.73
2019-04-14T08:57:13.364Z,55.73
2019-04-14T08:59:40.414Z,57.93
2019-04-14T09:02:07.463Z,56.83
2019-04-14T09:04:34.515Z,57.72
2019-04-14T09:07:01.550Z,57.87
2019-04-14T09:09:28.599Z,57.98
2019-04-14T09:11:55.643Z,57.16
2019-04-14T09:14:22.979Z,57.76
2019-04-14T09:16:51.085Z,56.67
2019-04-14T09:19:18.406Z,54.96
2019-04-14T09:21:45.453Z,53.51
2019-04-14T09:24:12.826Z,53.87
2019-04-14T09:26:39.869Z,56.12
2019-04-14T09:29:07.232Z,54.54
2019-04-14T09:31:34.572Z,51.83
2019-04-14T09:34:01.641Z,51.59
2019-04-14T09:36:28.680Z,50.56
2019-04-14T09:38:55.726Z,51.51
2019-04-14T09:41:22.789Z,52.26
2019-04-14T09:43:50.093Z,51.36
2019-04-14T09:46:17.144Z,49.76
2019-04-14T09:48:44.184Z,48.40
2019-04-14T09:51:11.244Z,48.36
2019-04-14T09:53:38.291Z,49.33
2019-04-14T09:56:05.660Z,46.54
2019-04-14T09:58:32.698Z,46.16
2019-04-14T10:00:59.835Z,41.27
2019-04-14T10:03:27.232Z,42.29
2019-04-14T10:05:54.571Z,37.98
2019-04-14T10:08:22.048Z,40.74
2019-04-14T10:10:49.499Z,39.22
2019-04-14T10:13:17.613Z,37.32
2019-04-14T10:15:44.672Z,36.19
2019-04-14T10:18:12.162Z,35.23
2019-04-14T10:20:39.518Z,37.00
2019-04-14T10:23:06.564Z,37.28
2019-04-14T10:25:33.940Z,36.67
2019-04-14T10:28:00.982Z,36.09
2019-04-14T10:30:28.343Z,37.99
2019-04-14T10:32:55.393Z,38.83
2019-04-14T10:35:22.745Z,39.83
2019-04-14T10:37:50.096Z,39.74
2019-04-14T10:40:17.151Z,42.20
2019-04-14T10:42:44.194Z,36.08
2019-04-14T10:45:11.257Z,36.84
2019-04-14T10:47:38.300Z,39.93
2019-04-14T10:50:05.633Z,40.11
2019-04-14T10:52:32.987Z,41.57
2019-04-14T10:55:00.048Z,43.60
2019-04-14T10:57:27.096Z,43.98
2019-04-14T10:59:54.439Z,44.18
2019-04-14T11:02:21.793Z,45.41
2019-04-14T11:04:48.846Z,42.94
2019-04-14T11:07:15.886Z,39.86
2019-04-14T11:09:43.250Z,38.37
2019-04-14T11:12:10.598Z,37.84
2019-04-14T11:14:37.644Z,36.75
2019-04-14T11:17:05.000Z,36.82
2019-04-14T11:19:32.055Z,39.85
2019-04-14T11:21:59.420Z,40.50
2019-04-14T11:24:26.458Z,36.49
2019-04-14T11:26:53.515Z,39.51
2019-04-14T11:29:20.872Z,38.84
2019-04-14T11:31:47.933Z,39.75
2019-04-14T11:34:15.276Z,41.80
2019-04-14T11:36:42.338Z,38.78
2019-04-14T11:39:09.671Z,38.72
2019-04-14T11:41:37.421Z,39.31
2019-04-14T11:44:04.469Z,36.12
2019-04-14T11:46:31.828Z,37.95
2019-04-14T11:48:59.200Z,37.58
2019-04-14T11:51:26.260Z,38.10
2019-04-14T11:53:53.586Z,37.03
2019-04-14T11:56:20.901Z,38.95
2019-04-14T11:58:47.943Z,37.24
2019-04-14T12:01:15.343Z,36.42
2019-04-14T12:03:42.722Z,39.11
2019-04-14T12:06:09.775Z,39.23
2019-04-14T12:08:36.823Z,39.43
2019-04-14T12:11:04.152Z,38.52
2019-04-14T12:13:31.506Z,37.33
2019-04-14T12:15:58.555Z,38.76
2019-04-14T12:18:25.604Z,37.11
2019-04-14T12:20:52.673Z,35.64
2019-04-14T12:23:19.711Z,35.89
2019-04-14T12:25:46.753Z,34.94
2019-04-14T12:28:14.884Z,33.68
2019-04-14T12:30:42.176Z,36.03
2019-04-14T12:33:09.226Z,34.76
2019-04-14T12:35:36.590Z,34.95
2019-04-14T12:38:03.929Z,32.18
2019-04-14T12:40:30.973Z,33.03
2019-04-14T12:42:58.029Z,34.22
2019-04-14T12:45:25.382Z,32.56
2019-04-14T12:47:52.449Z,32.60
2019-04-14T12:50:19.484Z,33.09
2019-04-14T12:52:46.846Z,33.48
2019-04-14T12:55:13.889Z,34.77
2019-04-14T12:57:41.233Z,35.82
2019-04-14T13:00:08.619Z,36.57
2019-04-14T13:02:35.665Z,35.95
2019-04-14T13:05:02.697Z,37.21
2019-04-14T13:07:29.761Z,38.23
2019-04-14T13:09:57.086Z,38.18
2019-04-14T13:12:24.463Z,40.19
2019-04-14T13:14:51.746Z,40.01
2019-04-14T13:17:18.800Z,42.06
2019-04-14T13:19:45.847Z,43.37
2019-04-14T13:22:13.262Z,41.96
2019-04-14T13:24:40.302Z,44.20
2019-04-14T13:27:07.356Z,44.17
2019-04-14T13:29:34.737Z,43.41
2019-04-14T13:32:45.522Z,44.22
2019-04-14T13:35:12.844Z,44.97
2019-04-14T13:37:40.156Z,43.46
2019-04-14T13:40:07.532Z,43.70
2019-04-14T13:42:34.891Z,43.71
2019-04-14T13:45:02.267Z,45.27
2019-04-14T13:47:30.496Z,44.72
2019-04-14T13:49:57.536Z,43.57
2019-04-14T13:52:24.931Z,42.05
2019-04-14T13:54:52.240Z,43.47
2019-04-14T13:57:19.308Z,42.36
2019-04-14T13:59:46.350Z,42.35
2019-04-14T14:02:13.410Z,42.88
2019-04-14T14:04:40.780Z,43.64
2019-04-14T14:07:07.850Z,43.83
2019-04-14T14:09:35.183Z,43.90
2019-04-14T14:12:02.222Z,44.18
2019-04-14T14:14:29.589Z,44.42
2019-04-14T14:16:56.944Z,43.31
2019-04-14T14:19:23.989Z,43.70
2019-04-14T14:21:51.376Z,43.82
2019-04-14T14:24:18.395Z,44.78
2019-04-14T14:26:45.765Z,47.38
2019-04-14T14:29:13.885Z,46.56
2019-04-14T14:31:40.922Z,45.71
2019-04-14T14:34:07.982Z,46.36
2019-04-14T14:36:35.018Z,45.32
2019-04-14T14:39:02.420Z,46.99
2019-04-14T14:41:31.077Z,47.12
2019-04-14T14:43:58.131Z,48.02
2019-04-14T14:46:25.167Z,48.87
2019-04-14T14:48:52.228Z,48.61
2019-04-14T14:51:19.605Z,49.16
2019-04-14T14:53:46.654Z,47.37
2019-04-14T14:56:13.702Z,48.04
2019-04-14T14:58:40.750Z,48.30
2019-04-14T15:01:08.123Z,47.95
2019-04-14T15:03:35.459Z,48.99
2019-04-14T15:06:02.815Z,49.08
2019-04-14T15:08:29.875Z,47.68
2019-04-14T15:10:56.910Z,48.25
2019-04-14T15:13:23.958Z,48.31
2019-04-14T15:15:50.994Z,48.94
2019-04-14T15:18:18.041Z,49.46
2019-04-14T15:20:45.082Z,50.12
2019-04-14T15:23:24.061Z,51.30
2019-04-14T15:25:40.862Z,51.04
2019-04-14T15:28:07.913Z,51.09
2019-04-14T15:30:34.955Z,52.42
2019-04-14T15:33:02.300Z,52.76
2019-04-14T15:35:29.644Z,52.39
2019-04-14T15:37:56.688Z,52.49
2019-04-14T15:40:24.048Z,52.24
2019-04-14T15:42:51.092Z,52.32
2019-04-14T15:45:19.471Z,52.40
2019-04-14T15:47:46.507Z,51.89
2019-04-14T15:50:13.557Z,51.74
2019-04-14T15:52:41.666Z,51.16
2019-04-14T15:55:08.712Z,52.04
2019-04-14T15:57:36.038Z,52.04
2019-04-14T16:00:03.095Z,51.81
2019-04-14T16:02:31.207Z,52.03
2019-04-14T16:04:58.619Z,53.13
2019-04-14T16:07:25.995Z,53.12
2019-04-14T16:09:53.052Z,51.98
2019-04-14T16:12:20.380Z,53.16
2019-04-14T16:14:47.502Z,53.00
2019-04-14T16:17:14.883Z,53.50
2019-04-14T16:19:42.340Z,53.87
2019-04-14T16:22:09.695Z,53.64
2019-04-14T16:24:37.068Z,54.67
2019-04-14T16:27:05.187Z,55.19
2019-04-14T16:29:32.599Z,54.18
2019-04-14T16:31:59.940Z,54.42
2019-04-14T16:34:27.291Z,54.65
2019-04-14T16:36:54.748Z,55.60
2019-04-14T16:39:22.058Z,55.90
2019-04-14T16:41:49.160Z,56.50
2019-04-14T16:44:16.191Z,56.98
2019-04-14T16:46:43.249Z,57.56
2019-04-14T16:49:10.455Z,58.36
2019-04-14T16:51:37.506Z,57.84
2019-04-14T16:54:05.523Z,58.07
2019-04-14T16:56:32.579Z,57.96
2019-04-14T16:58:59.919Z,58.86
2019-04-14T17:01:26.970Z,59.45
2019-04-14T17:03:54.446Z,59.82
2019-04-14T17:06:21.753Z,60.18
2019-04-14T17:08:49.135Z,59.96
2019-04-14T17:11:16.505Z,60.01
2019-04-14T17:13:43.987Z,60.29
2019-04-14T17:16:11.305Z,60.72
2019-04-14T17:18:38.757Z,61.11
2019-04-14T17:21:05.805Z,60.86
2019-04-14T17:23:33.015Z,61.19
2019-04-14T17:26:00.413Z,61.05
2019-04-14T17:28:27.784Z,61.24
2019-04-14T17:30:54.920Z,62.20
2019-04-14T17:33:21.959Z,62.60
2019-04-14T17:35:49.081Z,62.29
2019-04-14T17:38:16.113Z,62.38
2019-04-14T17:40:43.525Z,63.13
2019-04-14T17:43:10.879Z,63.45
2019-04-14T17:45:38.251Z,63.45
2019-04-14T17:48:05.530Z,63.75
2019-04-14T17:50:40.699Z,63.83
2019-04-14T17:53:01.950Z,64.39
2019-04-14T17:55:29.385Z,64.34
2019-04-14T17:57:56.528Z,65.28
2019-04-14T18:00:23.556Z,64.90
2019-04-14T18:02:50.606Z,65.18
2019-04-14T18:05:17.969Z,65.49
2019-04-14T18:07:45.093Z,65.89
2019-04-14T18:10:12.133Z,65.86
2019-04-14T18:12:39.177Z,65.94
2019-04-14T18:15:06.495Z,66.50
2019-04-14T18:17:33.546Z,66.94
2019-04-14T18:20:00.577Z,66.90
2019-04-14T18:22:27.704Z,67.35
2019-04-14T18:24:55.095Z,67.54
2019-04-14T18:27:22.446Z,67.89
2019-04-14T18:29:49.819Z,67.93
2019-04-14T18:32:16.872Z,68.04
2019-04-14T18:34:43.906Z,68.24
2019-04-14T18:37:11.196Z,68.44
2019-04-14T18:39:39.205Z,68.56
2019-04-14T18:42:06.252Z,68.38
2019-04-14T18:44:34.270Z,68.72
2019-04-14T18:47:02.390Z,68.67
2019-04-14T18:49:29.423Z,68.99
2019-04-14T18:51:56.473Z,69.08
2019-04-14T18:54:24.649Z,69.40
2019-04-14T18:56:51.958Z,69.46
2019-04-14T18:59:19.001Z,69.36
2019-04-14T19:01:46.059Z,69.68
2019-04-14T19:04:13.103Z,69.65
2019-04-14T19:06:40.132Z,70.18
2019-04-14T19:09:07.481Z,70.64
2019-04-14T19:11:36.143Z,70.91
2019-04-14T19:14:03.204Z,71.12
2019-04-14T19:16:39.354Z,71.81
2019-04-14T19:18:59.259Z,72.24
2019-04-14T19:21:26.299Z,72.36
2019-04-14T19:23:53.666Z,72.41
2019-04-14T19:26:20.709Z,72.45
2019-04-14T19:28:48.084Z,72.82
2019-04-14T19:31:15.135Z,72.65
2019-04-14T19:33:42.180Z,72.76
2019-04-14T19:36:09.517Z,72.94
2019-04-14T19:38:36.564Z,73.08
2019-04-14T19:41:03.605Z,73.65
2019-04-14T19:43:30.965Z,73.73
2019-04-14T19:45:58.322Z,73.79
2019-04-14T19:48:25.678Z,74.15
2019-04-14T19:50:52.714Z,74.19
2019-04-14T19:53:19.775Z,74.27
2019-04-14T19:55:46.813Z,74.39
2019-04-14T19:58:14.124Z,74.90
2019-04-14T20:00:41.155Z,75.07
2019-04-14T20:03:08.203Z,75.06
2019-04-14T20:05:35.540Z,75.07
2019-04-14T20:08:02.633Z,75.31
2019-04-14T20:10:30.054Z,75.06
2019-04-14T20:12:58.510Z,74.98
2019-04-14T20:18:14.622Z,75.65
2019-04-14T20:20:41.659Z,75.51
2019-04-14T20:23:08.799Z,75.89
2019-04-14T20:25:35.835Z,75.69
2019-04-14T20:28:02.876Z,76.28
2019-04-14T20:30:30.284Z,76.41
2019-04-14T20:32:57.322Z,76.58
2019-04-14T20:35:24.378Z,76.28
2019-04-14T20:37:51.418Z,76.30
2019-04-14T20:40:18.771Z,76.54
2019-04-14T20:42:46.130Z,76.79
2019-04-14T20:45:13.183Z,77.50
2019-04-14T20:47:40.532Z,77.65
2019-04-14T20:50:07.588Z,77.63
2019-04-14T20:52:34.625Z,77.71
2019-04-14T20:55:01.984Z,77.78
2019-04-14T20:57:29.190Z,77.89
2019-04-14T20:59:56.247Z,78.06
2019-04-14T21:02:23.288Z,78.41
2019-04-14T21:04:50.686Z,78.44
2019-04-14T21:07:17.723Z,78.45
2019-04-14T21:09:44.783Z,78.45
2019-04-14T21:12:11.825Z,78.61
2019-04-14T21:14:38.877Z,78.78
2019-04-14T21:17:05.916Z,78.84
2019-04-14T21:19:33.281Z,79.04
2019-04-14T21:22:00.314Z,79.48
2019-04-14T21:24:27.372Z,79.79
2019-04-14T21:26:54.422Z,79.78
2019-04-14T21:29:21.475Z,79.80
2019-04-14T21:31:48.846Z,80.53
2019-04-14T21:34:15.900Z,80.28
2019-04-14T21:36:43.250Z,80.31
2019-04-14T21:39:10.585Z,80.52
2019-04-14T21:41:39.612Z,80.28
2019-04-14T21:44:06.652Z,80.19
2019-04-14T21:46:33.935Z,80.18
2019-04-14T21:49:00.975Z,80.44
2019-04-14T21:51:28.279Z,80.73
2019-04-14T21:53:55.564Z,80.81
2019-04-14T21:56:22.641Z,80.94
2019-04-14T21:58:49.686Z,81.29
2019-04-14T22:01:16.735Z,81.39
2019-04-14T22:03:44.134Z,81.47
2019-04-14T22:06:11.491Z,81.86
2019-04-14T22:08:38.841Z,81.90
2019-04-14T22:11:05.900Z,81.78
2019-04-14T22:13:33.251Z,81.78
2019-04-14T22:16:00.602Z,82.36
2019-04-14T22:18:27.647Z,82.61
2019-04-14T22:20:54.698Z,82.20
2019-04-14T22:23:21.743Z,82.39
2019-04-14T22:25:49.102Z,82.79
2019-04-14T22:28:16.463Z,82.83
2019-04-14T22:30:43.507Z,82.96
2019-04-14T22:33:10.548Z,83.42
2019-04-14T22:35:37.605Z,83.47
2019-04-14T22:38:04.974Z,83.10
2019-04-14T22:40:32.031Z,83.31
2019-04-14T22:42:59.068Z,83.29
2019-04-14T22:45:26.122Z,84.02
2019-04-14T22:47:53.173Z,84.01
2019-04-14T22:50:20.501Z,83.90
2019-04-14T22:52:47.803Z,84.17
2019-04-14T22:55:15.106Z,84.27
2019-04-14T22:57:42.158Z,84.27
2019-04-14T23:00:09.432Z,84.68
2019-04-14T23:02:38.101Z,84.53
2019-04-14T23:05:05.247Z,84.62
2019-04-14T23:07:32.536Z,84.47
2019-04-14T23:09:59.823Z,84.35
2019-04-14T23:12:27.206Z,84.42
2019-04-14T23:14:54.246Z,84.34
2019-04-14T23:17:21.559Z,84.50
2019-04-14T23:19:48.881Z,84.67
2019-04-14T23:22:16.234Z,84.76
2019-04-14T23:24:43.511Z,84.57
2019-04-14T23:27:10.948Z,84.82
2019-04-14T23:29:37.993Z,84.61
2019-04-14T23:32:05.351Z,84.66
2019-04-14T23:34:32.649Z,84.63
2019-04-14T23:36:59.700Z,84.77
2019-04-14T23:39:28.123Z,84.65
2019-04-14T23:41:55.413Z,84.69
2019-04-14T23:44:22.738Z,84.68
2019-04-14T23:46:50.894Z,84.76
2019-04-14T23:49:18.177Z,84.86
2019-04-14T23:51:45.480Z,84.90
2019-04-14T23:54:12.514Z,84.80
2019-04-14T23:56:39.569Z,84.89
2019-04-14T23:59:06.601Z,84.73
